Time;durP1;ratioP1;P1;durP2;ratioP2;P2;SDS_P1;SDS_P2;PMS_P1;PMS_P2;Temp;Humidity;BMP_temperature;BMP_pressure;BME280_temperature;BME280_humidity;BME280_pressure;Samples;Min_cycle;Max_cycle;Signal;HPM_P1;HPM_P2
2023/06/04 00:01:28;;;;;;;7.63;3.00;;;;;;;19.34;27.35;101835.03;5034006;27;97668;-66
2023/06/04 00:03:55;;;;;;;6.38;2.47;;;;;;;18.98;27.63;101837.88;5040199;27;96859;-65
2023/06/04 00:06:21;;;;;;;4.80;2.63;;;;;;;19.27;27.54;101828.28;5038952;27;96926;-65
2023/06/04 00:08:47;;;;;;;3.70;2.47;;;;;;;19.25;27.44;101824.81;5035379;27;99263;-66
2023/06/04 00:11:15;;;;;;;4.45;2.00;;;;;;;19.33;26.07;101823.44;5032335;27;99618;-66
2023/06/04 00:13:41;;;;;;;6.22;2.15;;;;;;;19.19;27.44;101817.97;5032686;27;96796;-65
2023/06/04 00:16:07;;;;;;;4.47;2.35;;;;;;;19.14;28.95;101817.34;5033283;27;97132;-65
2023/06/04 00:18:34;;;;;;;6.80;2.55;;;;;;;19.06;29.48;101820.44;5031603;27;99134;-66
2023/06/04 00:21:00;;;;;;;5.13;2.72;;;;;;;18.94;28.99;101821.09;5031905;27;98928;-65
2023/06/04 00:23:26;;;;;;;4.70;2.13;;;;;;;18.89;29.51;101811.59;5033246;27;96979;-66
2023/06/04 00:25:53;;;;;;;4.95;2.13;;;;;;;18.95;29.50;101812.13;5032127;27;97665;-64
2023/06/04 00:28:20;;;;;;;5.68;2.08;;;;;;;18.79;30.09;101818.38;5029889;27;99106;-65
2023/06/04 00:30:47;;;;;;;7.60;2.13;;;;;;;18.83;30.58;101814.59;5025210;27;99447;-65
2023/06/04 00:33:13;;;;;;;5.82;1.80;;;;;;;18.89;30.07;101809.78;5030428;27;98877;-64
2023/06/04 00:35:39;;;;;;;3.90;1.90;;;;;;;18.71;30.56;101816.09;5032611;27;97119;-65
2023/06/04 00:38:06;;;;;;;5.22;2.20;;;;;;;18.73;30.61;101805.31;5033450;27;98963;-65
2023/06/04 00:40:32;;;;;;;1.80;1.65;;;;;;;18.73;30.89;101807.97;5041080;27;99271;-65
2023/06/04 00:42:59;;;;;;;4.43;1.88;;;;;;;18.43;31.51;101805.94;5029545;27;98753;-64
2023/06/04 00:45:30;;;;;;;3.25;2.00;;;;;;;18.35;31.99;101812.63;5022080;27;97576;-64
2023/06/04 00:47:57;;;;;;;5.70;1.92;;;;;;;18.08;32.33;101806.84;5020324;27;98894;-63
2023/06/04 00:50:24;;;;;;;4.25;2.08;;;;;;;17.97;32.69;101806.53;5022465;27;99022;-64
2023/06/04 00:52:52;;;;;;;4.35;1.83;;;;;;;18.16;32.31;101810.88;5025607;27;96801;-65
2023/06/04 00:55:18;;;;;;;5.88;1.83;;;;;;;18.10;32.54;101810.31;5029702;27;96977;-64
2023/06/04 00:57:45;;;;;;;6.90;1.70;;;;;;;17.80;33.22;101813.53;5032343;27;102203;-64
2023/06/04 01:00:13;;;;;;;1.90;1.42;;;;;;;17.78;33.52;101806.56;5028448;27;98829;-65
2023/06/04 01:02:43;;;;;;;6.22;2.05;;;;;;;17.82;33.27;101803.66;5022811;27;96784;-67
2023/06/04 01:05:17;;;;;;;4.70;1.70;;;;;;;17.73;33.54;101806.75;5037960;27;97045;-65
2023/06/04 01:07:46;;;;;;;6.13;1.80;;;;;;;17.78;33.24;101802.09;5029708;27;97623;-65
2023/06/04 01:10:13;;;;;;;3.88;1.90;;;;;;;17.60;33.63;101802.91;5029562;27;99184;-66
2023/06/04 01:12:40;;;;;;;3.95;1.85;;;;;;;17.77;33.53;101803.03;5027050;27;96858;-65
2023/06/04 01:15:08;;;;;;;3.60;2.00;;;;;;;17.66;33.87;101799.13;5030459;27;97193;-65
2023/06/04 01:17:38;;;;;;;4.15;1.67;;;;;;;17.68;34.45;101800.78;5026670;27;100175;-66
2023/06/04 01:20:19;;;;;;;4.40;1.75;;;;;;;17.73;34.48;101801.41;5025666;27;98831;-65
2023/06/04 01:22:59;;;;;;;3.13;1.85;;;;;;;17.58;34.24;101804.81;5036949;27;96814;-65
2023/06/04 01:25:34;;;;;;;3.80;2.00;;;;;;;17.77;33.83;101803.03;5027872;27;98831;-65
2023/06/04 01:28:03;;;;;;;4.97;1.98;;;;;;;17.70;33.54;101804.25;5028587;27;99489;-66
2023/06/04 01:30:33;;;;;;;4.07;1.83;;;;;;;18.03;32.88;101803.53;5026085;27;97865;-65
2023/06/04 01:33:00;;;;;;;6.00;1.83;;;;;;;18.14;32.30;101799.38;5028890;27;96863;-66
2023/06/04 01:35:31;;;;;;;3.42;1.60;;;;;;;18.09;32.40;101801.44;5028315;27;96875;-65
2023/06/04 01:37:58;;;;;;;3.60;1.70;;;;;;;17.68;32.57;101800.78;5031398;27;99486;-65
2023/06/04 01:40:26;;;;;;;4.88;1.80;;;;;;;18.11;31.41;101798.69;5027959;27;99560;-65
2023/06/04 01:42:52;;;;;;;4.07;1.65;;;;;;;18.35;30.65;101794.75;5030697;27;96984;-64
2023/06/04 01:45:19;;;;;;;5.28;1.80;;;;;;;18.08;32.96;101796.16;5026981;27;97075;-65
2023/06/04 01:47:45;;;;;;;4.60;1.90;;;;;;;18.16;33.59;101793.97;5027144;27;99237;-65
2023/06/04 01:50:12;;;;;;;3.88;2.20;;;;;;;17.86;34.35;101794.53;5024800;27;99075;-65
2023/06/04 01:52:41;;;;;;;6.63;1.70;;;;;;;17.77;34.79;101797.69;5021755;27;97830;-65
2023/06/04 01:55:11;;;;;;;5.47;1.30;;;;;;;17.72;35.22;101793.50;5026308;27;97275;-66
2023/06/04 01:57:39;;;;;;;3.63;1.63;;;;;;;17.62;35.12;101782.38;5022525;27;98981;-65
2023/06/04 02:00:08;;;;;;;3.08;1.65;;;;;;;17.33;36.16;101783.72;5030477;27;99420;-65
2023/06/04 02:02:35;;;;;;;6.85;1.77;;;;;;;17.35;36.52;101789.00;5035777;27;96799;-65
2023/06/04 02:05:02;;;;;;;3.78;1.88;;;;;;;17.24;36.81;101781.50;5026090;27;97411;-65
2023/06/04 02:07:28;;;;;;;2.75;1.50;;;;;;;17.33;36.44;101782.84;5031929;27;98900;-65
2023/06/04 02:09:56;;;;;;;3.15;1.92;;;;;;;17.23;36.59;101781.56;5027942;27;98914;-65
2023/06/04 02:12:22;;;;;;;2.50;1.38;;;;;;;16.96;36.78;101784.56;5032756;27;97998;-65
2023/06/04 02:14:49;;;;;;;3.47;1.40;;;;;;;17.01;36.65;101793.22;5028041;27;96897;-65
2023/06/04 02:17:16;;;;;;;2.88;1.80;;;;;;;17.15;36.49;101781.91;5037335;27;99810;-65
2023/06/04 02:19:44;;;;;;;4.78;1.40;;;;;;;17.13;36.94;101784.66;5036852;27;98813;-65
2023/06/04 02:22:11;;;;;;;2.53;1.30;;;;;;;17.17;37.16;101780.03;5024596;27;97793;-65
2023/06/04 02:24:38;;;;;;;2.70;1.70;;;;;;;16.93;37.62;101784.72;5030407;27;97052;-64
2023/06/04 02:27:07;;;;;;;2.42;1.45;;;;;;;16.92;37.57;101788.31;5021265;27;98948;-65
2023/06/04 02:29:34;;;;;;;3.15;1.95;;;;;;;16.96;38.05;101789.03;5024315;27;98843;-64
2023/06/04 02:32:00;;;;;;;3.03;1.70;;;;;;;16.61;38.60;101769.25;5021796;27;99125;-65
2023/06/04 02:34:26;;;;;;;5.40;1.83;;;;;;;16.98;37.88;101785.38;5030209;27;96876;-65
2023/06/04 02:36:53;;;;;;;2.70;1.77;;;;;;;17.18;36.85;101781.78;5032935;27;102226;-65
2023/06/04 02:39:20;;;;;;;3.97;1.98;;;;;;;16.96;37.44;101784.56;5032526;27;99385;-66
2023/06/04 02:41:47;;;;;;;4.25;2.10;;;;;;;17.11;37.25;101789.22;5024917;27;98815;-64
2023/06/04 02:44:15;;;;;;;4.18;1.90;;;;;;;16.98;37.96;101785.38;5022094;27;98634;-64
2023/06/04 02:46:41;;;;;;;2.33;1.80;;;;;;;16.73;39.04;101790.97;5025792;27;99217;-64
2023/06/04 02:49:07;;;;;;;3.72;1.80;;;;;;;16.81;38.85;101787.06;5026507;27;99103;-65
2023/06/04 02:51:34;;;;;;;6.15;2.50;;;;;;;16.55;39.16;101796.19;5029286;27;97781;-65
2023/06/04 02:54:00;;;;;;;2.50;1.63;;;;;;;16.76;38.97;101791.75;5031997;27;97982;-65
2023/06/04 02:56:27;;;;;;;6.70;1.80;;;;;;;16.77;38.57;101801.47;5025163;27;102175;-65
2023/06/04 02:58:55;;;;;;;4.13;2.00;;;;;;;16.83;38.06;101804.75;5033679;27;99170;-64
2023/06/04 03:01:23;;;;;;;4.82;2.20;;;;;;;16.74;38.56;101805.16;5033042;27;96808;-64
2023/06/04 03:03:50;;;;;;;3.65;2.05;;;;;;;16.66;38.71;101802.84;5028527;27;96933;-65
2023/06/04 03:06:20;;;;;;;5.05;2.20;;;;;;;16.66;39.10;101789.50;5024217;27;98916;-65
2023/06/04 03:08:46;;;;;;;4.10;2.08;;;;;;;16.87;38.41;101803.66;5029923;27;98190;-64
2023/06/04 03:11:13;;;;;;;5.72;2.22;;;;;;;16.72;38.45;101793.69;5028523;27;97635;-65
2023/06/04 03:13:40;;;;;;;3.85;1.63;;;;;;;16.56;39.16;101792.59;5028286;27;97031;-65
2023/06/04 03:16:09;;;;;;;3.67;1.90;;;;;;;16.73;39.08;101790.97;5024348;27;100050;-65
2023/06/04 03:18:38;;;;;;;6.43;2.08;;;;;;;16.70;39.03;101801.75;5026986;27;100442;-65
2023/06/04 03:21:05;;;;;;;6.20;1.75;;;;;;;16.57;39.01;101794.31;5028883;27;97489;-66
2023/06/04 03:23:32;;;;;;;9.85;1.70;;;;;;;16.56;38.79;101795.25;5030422;27;99075;-66
2023/06/04 03:25:58;;;;;;;3.08;2.00;;;;;;;16.75;38.50;101788.19;5027041;27;99105;-64
2023/06/04 03:28:25;;;;;;;4.32;1.75;;;;;;;16.77;38.57;101790.81;5028393;27;100003;-63
2023/06/04 03:30:51;;;;;;;4.38;1.65;;;;;;;16.86;38.88;101790.41;5029608;27;97232;-64
2023/06/04 03:33:18;;;;;;;2.03;1.38;;;;;;;16.90;38.96;101792.00;5033547;27;98462;-64
2023/06/04 03:35:47;;;;;;;3.13;1.85;;;;;;;16.90;38.98;101792.84;5032674;27;98999;-64
2023/06/04 03:38:14;;;;;;;3.38;1.60;;;;;;;16.95;39.18;101796.19;5025552;27;99418;-65
2023/06/04 03:40:40;;;;;;;3.97;1.95;;;;;;;16.98;38.88;101804.06;5029182;27;97661;-64
2023/06/04 03:43:07;;;;;;;5.22;2.03;;;;;;;16.90;38.95;101800.88;5035724;27;96809;-65
2023/06/04 03:45:33;;;;;;;5.30;1.95;;;;;;;17.02;39.52;101797.63;5029559;27;98973;-65
2023/06/04 03:48:00;;;;;;;5.55;1.83;;;;;;;16.95;39.73;101803.31;5027603;27;100722;-65
2023/06/04 03:50:27;;;;;;;3.40;1.40;;;;;;;17.00;39.63;101799.50;5034892;27;96799;-65
2023/06/04 03:52:55;;;;;;;2.17;1.50;;;;;;;16.90;39.79;101795.53;5029136;27;98892;-65
2023/06/04 03:55:22;;;;;;;2.78;2.15;;;;;;;17.37;38.67;101792.47;5029433;27;98965;-65
2023/06/04 03:57:49;;;;;;;3.53;1.70;;;;;;;17.53;38.21;101793.47;5028119;27;98788;-65
2023/06/04 04:00:16;;;;;;;3.65;1.40;;;;;;;17.69;36.84;101796.31;5030844;27;96922;-65
2023/06/04 04:02:43;;;;;;;5.47;2.00;;;;;;;17.91;36.76;101794.31;5024546;27;97104;-66
2023/06/04 04:05:10;;;;;;;4.13;1.70;;;;;;;17.76;37.34;101789.72;5035678;27;99091;-65
2023/06/04 04:07:37;;;;;;;4.53;1.52;;;;;;;17.82;37.33;101806.31;5026997;27;98644;-65
2023/06/04 04:10:06;;;;;;;1.95;1.23;;;;;;;17.65;37.80;101798.28;5022822;27;96815;-64
2023/06/04 04:12:33;;;;;;;13.73;1.85;;;;;;;17.90;37.07;101804.16;5031346;27;99645;-65
2023/06/04 04:14:59;;;;;;;5.22;1.85;;;;;;;17.97;37.66;101804.72;5032764;27;98924;-66
2023/06/04 04:17:26;;;;;;;3.15;1.42;;;;;;;17.96;37.87;101807.47;5031151;27;98820;-65
2023/06/04 04:19:52;;;;;;;3.83;1.50;;;;;;;18.11;37.07;101809.38;5026633;27;97650;-64
2023/06/04 04:22:19;;;;;;;6.45;1.92;;;;;;;18.09;36.94;101805.91;5034238;27;97216;-66
2023/06/04 04:24:45;;;;;;;2.30;1.50;;;;;;;18.09;36.33;101811.25;5032446;27;99177;-66
2023/06/04 04:27:13;;;;;;;3.20;1.77;;;;;;;18.32;36.41;101809.13;5030448;27;98976;-65
2023/06/04 04:29:42;;;;;;;3.00;1.77;;;;;;;18.42;35.73;101814.91;5034065;27;100043;-65
2023/06/04 04:32:10;;;;;;;4.55;1.80;;;;;;;18.43;35.32;101815.78;5031156;27;96911;-65
2023/06/04 04:34:38;;;;;;;4.45;1.60;;;;;;;18.47;36.24;101820.88;5027947;27;97728;-64
2023/06/04 04:37:08;;;;;;;4.07;1.30;;;;;;;18.73;36.61;101814.19;5027510;27;98839;-66
2023/06/04 04:39:35;;;;;;;3.92;1.65;;;;;;;18.67;35.49;101819.88;5030879;27;96985;-64
2023/06/04 04:42:02;;;;;;;5.93;1.92;;;;;;;19.04;34.96;101818.78;5029183;27;97167;-65
2023/06/04 04:44:30;;;;;;;4.32;1.90;;;;;;;19.34;33.48;101810.91;5042917;27;99047;-66
2023/06/04 04:46:56;;;;;;;5.82;1.63;;;;;;;19.35;33.66;101805.47;5029117;27;98712;-65
2023/06/04 04:49:23;;;;;;;3.05;1.45;;;;;;;19.58;33.07;101816.75;5026096;27;97205;-65
2023/06/04 04:51:49;;;;;;;3.42;2.00;;;;;;;19.66;32.63;101809.13;5024544;27;96987;-65
2023/06/04 04:54:16;;;;;;;2.55;1.55;;;;;;;19.76;32.12;101815.69;5029670;27;98889;-66
2023/06/04 04:56:42;;;;;;;3.25;1.80;;;;;;;20.99;30.63;101811.03;5031937;27;98895;-65
2023/06/04 04:59:08;;;;;;;2.42;1.55;;;;;;;22.56;28.09;101813.25;5027962;27;97502;-66
2023/06/04 05:01:36;;;;;;;1.83;1.40;;;;;;;23.80;26.52;101816.09;5024480;27;97667;-66
2023/06/04 05:04:03;;;;;;;3.28;1.33;;;;;;;24.65;24.99;101814.13;5033425;27;98880;-65
2023/06/04 05:06:29;;;;;;;1.88;1.40;;;;;;;24.04;24.50;101814.25;5031993;27;99399;-65
2023/06/04 05:08:55;;;;;;;3.28;1.70;;;;;;;24.29;24.53;101815.09;5030136;27;96920;-66
2023/06/04 05:11:22;;;;;;;5.15;1.58;;;;;;;23.61;25.32;101815.72;5031672;27;99048;-65
2023/06/04 05:13:48;;;;;;;2.92;2.00;;;;;;;23.83;25.09;101816.69;5026822;27;99280;-65
2023/06/04 05:16:15;;;;;;;3.30;1.63;;;;;;;23.75;25.44;101818.25;5031754;27;98869;-66
2023/06/04 05:18:44;;;;;;;2.90;1.98;;;;;;;23.19;25.87;101815.09;5025054;27;97707;-66
2023/06/04 05:21:11;;;;;;;4.00;2.05;;;;;;;22.91;26.05;101818.91;5025705;27;99030;-66
2023/06/04 05:23:38;;;;;;;3.65;1.63;;;;;;;23.07;25.86;101816.00;5027957;27;99134;-66
2023/06/04 05:26:05;;;;;;;3.38;1.70;;;;;;;22.95;25.78;101823.13;5026442;27;98761;-64
2023/06/04 05:28:32;;;;;;;4.55;1.92;;;;;;;22.86;25.87;101828.28;5024475;27;99244;-65
2023/06/04 05:30:59;;;;;;;5.82;2.08;;;;;;;22.73;25.78;101824.72;5029483;27;98195;-65
2023/06/04 05:33:25;;;;;;;5.80;2.22;;;;;;;22.61;26.12;101823.69;5030842;27;99141;-65
2023/06/04 05:35:57;;;;;;;4.55;1.90;;;;;;;22.52;26.09;101821.63;5026166;27;99255;-64
2023/06/04 05:38:26;;;;;;;3.00;2.45;;;;;;;22.65;25.75;101823.38;5028077;27;97602;-65
2023/06/04 05:40:54;;;;;;;3.55;1.95;;;;;;;22.67;25.97;101826.84;5030638;27;96921;-66
2023/06/04 05:43:21;;;;;;;7.78;2.17;;;;;;;22.87;25.66;101824.63;5025674;27;98891;-65
2023/06/04 05:45:47;;;;;;;3.25;1.48;;;;;;;22.25;26.49;101827.09;5034400;27;98814;-66
2023/06/04 05:48:14;;;;;;;3.65;1.80;;;;;;;22.70;26.01;101835.69;5027789;27;98388;-65
2023/06/04 05:50:40;;;;;;;3.25;1.55;;;;;;;22.90;25.62;101832.50;5028156;27;96797;-66
2023/06/04 05:53:08;;;;;;;5.47;1.73;;;;;;;22.95;25.54;101839.28;5026243;27;99192;-65
2023/06/04 05:55:34;;;;;;;7.55;1.80;;;;;;;22.98;25.59;101843.59;5036002;27;97500;-66
2023/06/04 05:58:00;;;;;;;6.20;1.90;;;;;;;22.77;26.35;101839.72;5027051;27;97769;-68
2023/06/04 06:00:27;;;;;;;4.38;1.35;;;;;;;23.10;25.62;101837.34;5030916;27;96844;-65
2023/06/04 06:02:53;;;;;;;3.35;1.73;;;;;;;22.38;26.05;101833.38;5027029;27;99581;-66
2023/06/04 06:05:20;;;;;;;4.15;1.80;;;;;;;23.04;24.93;101838.63;5023040;27;99769;-66
2023/06/04 06:07:47;;;;;;;6.93;1.73;;;;;;;23.00;24.59;101850.59;5031340;27;99786;-65
2023/06/04 06:10:15;;;;;;;2.90;1.40;;;;;;;22.99;25.29;101850.69;5029259;27;96881;-65
2023/06/04 06:12:41;;;;;;;3.53;1.10;;;;;;;22.80;25.21;101848.44;5019703;27;99415;-66
2023/06/04 06:15:09;;;;;;;4.05;1.50;;;;;;;22.79;25.08;101848.53;5026752;27;98871;-66
2023/06/04 06:17:36;;;;;;;3.45;1.27;;;;;;;22.85;24.34;101848.97;5023514;27;96858;-66
2023/06/04 06:20:05;;;;;;;4.15;1.25;;;;;;;23.55;24.23;101851.25;5030526;27;97595;-66
2023/06/04 06:22:32;;;;;;;4.15;1.38;;;;;;;23.93;23.48;101843.03;5020540;27;99019;-66
2023/06/04 06:24:58;;;;;;;1.73;1.33;;;;;;;23.98;22.45;101843.53;5034593;27;99508;-67
2023/06/04 06:27:26;;;;;;;3.45;1.90;;;;;;;24.11;22.40;101855.13;5031045;27;96689;-66
2023/06/04 06:29:52;;;;;;;5.13;1.90;;;;;;;23.24;23.45;101853.38;5031532;27;97329;-66
2023/06/04 06:32:19;;;;;;;6.75;1.88;;;;;;;23.81;22.88;101856.47;5022281;27;99165;-66
2023/06/04 06:34:45;;;;;;;5.93;1.50;;;;;;;24.10;22.64;101845.31;5024531;27;99593;-66
2023/06/04 06:37:11;;;;;;;2.42;1.40;;;;;;;24.47;21.58;101838.03;5032628;27;96829;-66
2023/06/04 06:39:38;;;;;;;6.03;1.63;;;;;;;24.44;21.30;101846.38;5023707;27;97319;-66
2023/06/04 06:42:04;;;;;;;3.28;1.58;;;;;;;24.79;21.08;101858.03;5025079;27;99578;-66
2023/06/04 06:44:32;;;;;;;3.92;1.50;;;;;;;24.68;21.46;101860.69;5025188;27;99198;-66
2023/06/04 06:46:58;;;;;;;4.43;1.38;;;;;;;24.69;21.19;101853.44;5024720;27;96971;-65
2023/06/04 06:49:24;;;;;;;6.55;1.15;;;;;;;24.66;21.21;101854.56;5030153;27;97005;-65
2023/06/04 06:51:51;;;;;;;3.53;1.25;;;;;;;24.86;21.14;101853.88;5023617;27;99112;-67
2023/06/04 06:54:17;;;;;;;2.13;1.15;;;;;;;24.88;20.26;101854.59;5028536;27;99219;-65
2023/06/04 06:56:43;;;;;;;5.70;1.25;;;;;;;24.84;20.67;101850.41;5036198;27;96819;-65
2023/06/04 06:59:10;;;;;;;2.55;1.25;;;;;;;25.17;20.42;101857.75;5021088;27;97615;-66
2023/06/04 07:01:38;;;;;;;4.63;1.02;;;;;;;25.26;20.04;101853.47;5024472;27;98868;-66
2023/06/04 07:04:04;;;;;;;4.40;1.05;;;;;;;25.49;19.37;101851.59;5030843;27;99753;-65
2023/06/04 07:06:30;;;;;;;3.03;0.75;;;;;;;25.48;19.52;101856.16;5037924;27;97206;-67
2023/06/04 07:08:57;;;;;;;2.70;0.95;;;;;;;25.20;20.06;101859.38;5036905;27;98979;-66
2023/06/04 07:11:23;;;;;;;4.35;1.02;;;;;;;25.63;19.08;101863.06;5035746;27;99706;-67
2023/06/04 07:13:50;;;;;;;4.22;1.17;;;;;;;25.78;19.35;101852.84;5022277;27;99013;-67
2023/06/04 07:16:16;;;;;;;2.35;0.80;;;;;;;25.69;18.83;101862.56;5029011;27;98422;-66
2023/06/04 07:18:46;;;;;;;2.97;1.83;;;;;;;25.91;18.21;101855.41;5029386;27;98987;-67
2023/06/04 07:21:22;;;;;;;3.50;1.60;;;;;;;25.60;18.14;101849.78;5033017;27;97506;-68
2023/06/04 07:23:53;;;;;;;3.67;0.88;;;;;;;25.59;18.69;101856.19;5031467;27;101318;-67
2023/06/04 07:26:24;;;;;;;1.70;1.20;;;;;;;25.79;18.04;101858.13;5028344;27;97130;-67
2023/06/04 07:28:51;;;;;;;2.00;1.00;;;;;;;25.19;18.47;101857.63;5025131;27;97669;-66
2023/06/04 07:31:21;;;;;;;1.42;0.88;;;;;;;25.15;18.67;101853.44;5025409;27;99069;-66
2023/06/04 07:33:49;;;;;;;4.47;1.70;;;;;;;25.17;18.95;101854.19;5030425;27;98287;-67
2023/06/04 07:36:16;;;;;;;2.97;0.80;;;;;;;25.09;18.43;101857.50;5034802;27;97124;-66
2023/06/04 07:38:43;;;;;;;5.22;1.05;;;;;;;25.49;18.51;101855.16;5027350;27;98826;-68
2023/06/04 07:41:21;;;;;;;3.33;0.85;;;;;;;25.28;19.09;101859.59;5024675;27;99705;-67
2023/06/04 07:43:49;;;;;;;3.70;1.00;;;;;;;25.70;18.87;101855.31;5025220;27;98829;-67
2023/06/04 07:46:18;;;;;;;2.15;0.75;;;;;;;25.51;18.93;101860.47;5031858;27;97524;-67
2023/06/04 07:48:48;;;;;;;5.78;0.82;;;;;;;25.58;18.29;101865.28;5019951;27;98774;-64
2023/06/04 07:51:16;;;;;;;4.82;0.85;;;;;;;25.94;18.07;101860.53;5017319;27;99743;-61
2023/06/04 07:53:48;;;;;;;3.15;1.20;;;;;;;26.06;17.84;101854.09;5028815;27;99057;-63
2023/06/04 07:56:15;;;;;;;2.90;0.93;;;;;;;26.06;17.73;101856.81;5019501;27;97716;-62
2023/06/04 07:58:41;;;;;;;1.45;0.70;;;;;;;26.25;17.94;101854.34;5026217;27;96904;-63
2023/06/04 08:01:08;;;;;;;6.22;0.77;;;;;;;26.33;18.09;101854.53;5028692;27;101168;-64
2023/06/04 08:03:34;;;;;;;3.38;0.88;;;;;;;26.10;17.48;101850.19;5026068;27;99193;-62
2023/06/04 08:06:01;;;;;;;2.28;0.77;;;;;;;25.86;17.80;101853.09;5029045;27;99159;-63
2023/06/04 08:08:29;;;;;;;1.13;0.73;;;;;;;26.37;17.32;101855.16;5028992;27;97245;-63
2023/06/04 08:10:55;;;;;;;16.25;7.78;;;;;;;26.66;17.40;101852.66;5033310;27;98932;-62
2023/06/04 08:13:22;;;;;;;9.15;1.10;;;;;;;26.60;17.42;101851.34;5033984;27;98890;-62
2023/06/04 08:15:48;;;;;;;1.48;1.00;;;;;;;26.64;17.21;101855.53;5027784;27;97190;-62
2023/06/04 08:18:15;;;;;;;1.75;0.70;;;;;;;26.39;17.11;101851.31;5030058;27;98693;-62
2023/06/04 08:20:41;;;;;;;3.83;0.75;;;;;;;26.34;17.32;101850.84;5029009;27;99501;-64
2023/06/04 08:23:08;;;;;;;1.00;0.80;;;;;;;25.99;17.23;101847.50;5026545;27;99300;-61
2023/06/04 08:25:35;;;;;;;6.43;1.05;;;;;;;26.25;17.46;101848.94;5032109;27;99168;-65
2023/06/04 08:28:02;;;;;;;27.27;1.48;;;;;;;25.91;17.74;101855.41;5026255;27;97387;-62
2023/06/04 08:30:29;;;;;;;3.15;1.23;;;;;;;26.03;17.64;101855.25;5028192;27;98909;-62
2023/06/04 08:32:55;;;;;;;1.45;0.70;;;;;;;26.01;17.54;101856.34;5022952;27;99187;-62
2023/06/04 08:35:22;;;;;;;6.30;0.80;;;;;;;26.14;17.41;101854.34;5025232;27;96931;-63
2023/06/04 08:37:48;;;;;;;2.35;0.70;;;;;;;26.27;17.10;101854.19;5022896;27;96919;-62
2023/06/04 08:40:15;;;;;;;1.65;0.80;;;;;;;25.83;16.94;101847.03;5024864;27;98263;-63
2023/06/04 08:42:45;;;;;;;4.30;0.77;;;;;;;26.07;17.13;101853.13;5022559;27;98972;-63
2023/06/04 08:45:13;;;;;;;3.30;2.00;;;;;;;26.43;16.99;101863.63;5032500;27;96766;-63
2023/06/04 08:47:45;;;;;;;4.40;1.35;;;;;;;26.45;16.74;101860.78;5025041;27;97102;-63
2023/06/04 08:50:13;;;;;;;2.90;1.10;;;;;;;26.32;16.96;101858.22;5027762;27;99135;-62
2023/06/04 08:52:40;;;;;;;1.38;0.82;;;;;;;26.04;16.90;101858.81;5023418;27;98821;-63
2023/06/04 08:55:09;;;;;;;0.70;0.60;;;;;;;25.69;17.26;101859.84;5027259;27;98407;-62
2023/06/04 08:57:36;;;;;;;1.35;0.80;;;;;;;25.97;16.98;101860.31;5022608;27;99075;-62
2023/06/04 09:00:07;;;;;;;2.50;1.13;;;;;;;26.12;17.06;101859.03;5029907;27;99472;-63
2023/06/04 09:02:34;;;;;;;3.05;1.70;;;;;;;26.34;17.11;101860.81;5029644;27;98956;-63
2023/06/04 09:05:01;;;;;;;2.40;0.90;;;;;;;26.44;16.98;101859.94;5029732;27;97279;-63
2023/06/04 09:07:28;;;;;;;2.80;0.90;;;;;;;26.56;17.15;101858.03;5025828;27;98743;-63
2023/06/04 09:09:55;;;;;;;2.25;1.45;;;;;;;26.74;16.53;101859.16;5028887;27;99107;-63
2023/06/04 09:12:24;;;;;;;3.75;1.10;;;;;;;26.46;16.85;101857.94;5020634;27;98881;-64
2023/06/04 09:14:51;;;;;;;3.17;1.77;;;;;;;26.67;17.09;101857.97;5021517;27;97675;-62
2023/06/04 09:17:23;;;;;;;5.07;1.05;;;;;;;26.49;17.32;101859.53;5027393;27;96885;-61
2023/06/04 09:19:51;;;;;;;2.13;0.90;;;;;;;26.19;17.14;101860.22;5022004;27;98948;-62
2023/06/04 09:22:17;;;;;;;2.33;0.80;;;;;;;26.00;17.22;101854.63;5022780;27;98805;-62
2023/06/04 09:24:47;;;;;;;4.82;0.73;;;;;;;26.03;17.19;101857.94;5025906;27;98530;-63
2023/06/04 09:27:15;;;;;;;4.15;0.93;;;;;;;26.18;16.91;101853.09;5030370;27;97162;-62
2023/06/04 09:29:41;;;;;;;2.40;0.80;;;;;;;26.12;17.11;101856.34;5026964;27;99722;-63
2023/06/04 09:32:08;;;;;;;2.45;0.98;;;;;;;26.31;17.01;101863.81;5030903;27;98896;-62
2023/06/04 09:34:36;;;;;;;3.70;1.00;;;;;;;26.65;16.56;101862.63;5025442;27;96834;-62
2023/06/04 09:37:03;;;;;;;1.23;1.00;;;;;;;26.20;17.06;101862.81;5018013;27;97280;-63
2023/06/04 09:39:30;;;;;;;3.72;1.15;;;;;;;26.34;17.01;101855.41;5016946;27;99007;-61
2023/06/04 09:42:00;;;;;;;4.57;0.80;;;;;;;25.97;17.41;101854.88;5016442;27;98853;-65
2023/06/04 09:44:26;;;;;;;1.40;0.73;;;;;;;25.84;16.94;101859.59;5017282;27;97742;-62
2023/06/04 09:46:56;;;;;;;3.83;0.70;;;;;;;25.69;17.29;101862.56;5014093;27;97331;-62
2023/06/04 09:49:23;;;;;;;6.72;1.10;;;;;;;25.77;17.01;101859.25;5016904;27;98866;-62
2023/06/04 09:51:52;;;;;;;1.20;0.73;;;;;;;25.90;17.11;101849.13;5022036;27;98710;-63
2023/06/04 09:54:18;;;;;;;3.60;1.00;;;;;;;25.71;16.66;101857.91;5018256;27;96968;-62
2023/06/04 09:56:44;;;;;;;1.70;0.70;;;;;;;26.31;16.72;101853.84;5014221;27;99125;-62
2023/06/04 09:59:11;;;;;;;3.33;0.75;;;;;;;26.66;16.57;101852.66;5017732;27;99047;-62
2023/06/04 10:01:40;;;;;;;2.13;1.38;;;;;;;26.50;16.65;101848.56;5011420;27;99028;-62
2023/06/04 10:04:08;;;;;;;1.73;0.75;;;;;;;26.58;16.32;101851.47;5024309;27;97591;-62
2023/06/04 10:06:36;;;;;;;3.75;2.20;;;;;;;26.69;16.66;101857.84;5015066;27;98365;-61
2023/06/04 10:09:07;;;;;;;3.33;1.90;;;;;;;26.45;16.48;101855.38;5016919;27;99066;-62
2023/06/04 10:11:36;;;;;;;1.67;0.90;;;;;;;26.50;16.37;101847.72;5016239;27;99716;-63
2023/06/04 10:14:05;;;;;;;1.98;0.77;;;;;;;26.60;16.44;101854.03;5019557;27;97799;-62
2023/06/04 10:16:32;;;;;;;1.63;1.13;;;;;;;26.74;16.62;101851.00;5016419;27;98869;-63
2023/06/04 10:18:59;;;;;;;3.35;0.90;;;;;;;26.75;16.39;101846.44;5008198;27;99142;-62
2023/06/04 10:21:27;;;;;;;2.22;0.95;;;;;;;26.73;16.40;101838.44;5016810;27;99217;-64
2023/06/04 10:23:53;;;;;;;3.92;1.75;;;;;;;26.48;16.59;101846.97;5024716;27;97294;-64
2023/06/04 10:26:21;;;;;;;1.92;1.38;;;;;;;26.76;16.26;101846.31;5020140;27;99394;-63
2023/06/04 10:28:47;;;;;;;3.60;1.48;;;;;;;26.80;16.33;101852.34;5015885;27;98988;-64
2023/06/04 10:31:16;;;;;;;1.23;0.90;;;;;;;26.54;15.95;101855.44;5017800;27;99371;-64
2023/06/04 10:33:42;;;;;;;3.13;0.88;;;;;;;26.21;16.12;101839.28;5012423;27;96884;-64
2023/06/04 10:36:19;;;;;;;4.25;0.85;;;;;;;25.91;16.72;101839.16;5019860;27;98776;-63
2023/06/04 10:38:47;;;;;;;3.95;0.95;;;;;;;26.08;16.53;101841.31;5019276;27;99427;-63
2023/06/04 10:41:15;;;;;;;1.85;0.77;;;;;;;26.21;16.34;101842.00;5011546;27;98774;-64
2023/06/04 10:43:43;;;;;;;2.75;1.30;;;;;;;26.12;16.64;101835.50;5010326;27;98293;-65
2023/06/04 10:46:14;;;;;;;3.80;2.83;;;;;;;26.35;16.70;101838.16;5016599;27;97196;-64
2023/06/04 10:48:48;;;;;;;3.13;0.77;;;;;;;26.52;16.31;101841.16;5012502;27;99482;-64
2023/06/04 10:51:16;;;;;;;4.30;1.05;;;;;;;26.67;16.09;101833.56;5019211;27;98891;-63
2023/06/04 10:53:42;;;;;;;2.38;0.70;;;;;;;26.65;16.32;101837.41;5014812;27;98608;-63
2023/06/04 10:56:09;;;;;;;1.98;1.17;;;;;;;26.68;16.85;101837.13;5007066;27;99517;-64
2023/06/04 10:58:36;;;;;;;4.22;0.80;;;;;;;26.45;16.17;101836.41;5015024;27;98985;-63
2023/06/04 11:01:04;;;;;;;2.13;0.77;;;;;;;26.22;16.08;101838.31;5018000;27;99027;-63
2023/06/04 11:03:36;;;;;;;2.55;0.90;;;;;;;26.59;15.80;101836.06;5012870;27;96859;-63
2023/06/04 11:06:03;;;;;;;1.40;1.30;;;;;;;26.46;16.52;101836.25;5015302;27;97622;-64
2023/06/04 11:08:30;;;;;;;9.35;3.13;;;;;;;26.49;16.45;101835.13;5010000;27;98905;-65
2023/06/04 11:10:57;;;;;;;2.28;1.48;;;;;;;26.33;16.32;101829.28;5016543;27;99318;-63
2023/06/04 11:13:24;;;;;;;2.40;1.00;;;;;;;26.37;16.60;101831.63;5019231;27;97759;-64
2023/06/04 11:15:50;;;;;;;2.83;0.70;;;;;;;25.93;16.74;101823.66;5018311;27;96946;-65
2023/06/04 11:18:19;;;;;;;2.30;0.88;;;;;;;25.89;16.76;101828.44;5014569;27;98960;-63
2023/06/04 11:20:48;;;;;;;2.70;1.00;;;;;;;25.93;16.94;101826.34;5021299;27;99070;-63
2023/06/04 11:23:16;;;;;;;3.20;0.70;;;;;;;25.85;16.34;101824.28;5015258;27;98992;-64
2023/06/04 11:25:43;;;;;;;2.40;0.90;;;;;;;26.50;15.85;101820.59;5017589;27;97746;-65